Time;durP1;ratioP1;P1;durP2;ratioP2;P2;SDS_P1;SDS_P2;PMS_P1;PMS_P2;Temp;Humidity;BMP_temperature;BMP_pressure;BME280_temperature;BME280_humidity;BME280_pressure;Samples;Min_cycle;Max_cycle;Signal;HPM_P1;HPM_P2
2022/01/10 00:00:32;;;;;;;3.45;2.03;;;8.90;99.90;;;;;;6276754;22;20083;-66
2022/01/10 00:02:59;;;;;;;5.78;2.50;;;8.90;99.90;;;;;;6276851;22;20000;-66
2022/01/10 00:05:27;;;;;;;5.85;2.33;;;8.90;99.90;;;;;;6276579;22;20082;-66
2022/01/10 00:07:53;;;;;;;6.00;2.35;;;8.90;99.90;;;;;;6276709;22;20012;-66
2022/01/10 00:10:20;;;;;;;8.25;2.80;;;8.90;99.90;;;;;;6278599;22;20049;-66
2022/01/10 00:12:48;;;;;;;4.82;2.45;;;8.90;99.90;;;;;;6278688;22;20420;-66
2022/01/10 00:15:16;;;;;;;3.80;2.25;;;8.90;99.90;;;;;;6278549;22;20346;-66
2022/01/10 00:17:44;;;;;;;7.18;2.70;;;8.90;99.90;;;;;;6278491;22;20008;-66
2022/01/10 00:20:13;;;;;;;6.05;2.10;;;8.90;99.90;;;;;;6278769;22;20429;-65
2022/01/10 00:22:45;;;;;;;2.50;1.80;;;8.90;99.90;;;;;;6279072;22;20306;-66
2022/01/10 00:25:14;;;;;;;4.28;2.00;;;8.90;99.90;;;;;;6251579;22;20015;-66
2022/01/10 00:27:42;;;;;;;4.50;2.38;;;8.90;99.90;;;;;;6278525;22;20019;-66
2022/01/10 00:30:11;;;;;;;4.53;2.17;;;8.90;99.90;;;;;;6279010;22;20299;-66
2022/01/10 00:32:40;;;;;;;10.63;2.70;;;8.90;99.90;;;;;;6278363;22;20030;-66
2022/01/10 00:35:08;;;;;;;5.47;2.50;;;8.90;99.90;;;;;;6278680;22;20037;-66
2022/01/10 00:37:35;;;;;;;5.60;2.20;;;8.90;99.90;;;;;;6251246;22;20012;-66
2022/01/10 00:40:05;;;;;;;6.95;2.45;;;8.90;99.90;;;;;;6278246;22;20143;-66
2022/01/10 00:42:32;;;;;;;5.25;2.47;;;8.90;99.90;;;;;;6278173;22;20449;-65
2022/01/10 00:45:02;;;;;;;6.22;2.40;;;8.80;99.90;;;;;;6251236;22;20050;-65
2022/01/10 00:47:29;;;;;;;6.07;2.97;;;8.90;99.90;;;;;;6278762;22;20030;-66
2022/01/10 00:49:56;;;;;;;4.85;1.90;;;8.80;99.90;;;;;;6278638;22;20007;-65
2022/01/10 00:52:23;;;;;;;7.07;2.30;;;8.90;99.90;;;;;;6278241;22;20053;-66
2022/01/10 00:54:49;;;;;;;10.85;2.38;;;8.90;99.90;;;;;;6277959;22;20086;-66
2022/01/10 00:57:16;;;;;;;5.13;2.33;;;8.90;99.90;;;;;;6251162;22;20337;-66
2022/01/10 00:59:43;;;;;;;6.88;2.30;;;8.90;99.90;;;;;;6251019;22;20314;-66
2022/01/10 01:02:09;;;;;;;2.28;1.65;;;8.80;99.90;;;;;;6278579;22;20004;-66
2022/01/10 01:04:36;;;;;;;5.70;2.10;;;8.90;99.90;;;;;;6278127;22;19996;-66
2022/01/10 01:07:03;;;;;;;4.13;1.83;;;8.80;99.90;;;;;;6277777;22;20397;-66
2022/01/10 01:09:31;;;;;;;3.53;1.52;;;8.90;99.90;;;;;;6278091;22;20011;-66
2022/01/10 01:17:25;;;;;;;5.28;1.33;;;8.80;99.90;;;;;;6278047;22;20028;-66
2022/01/10 01:25:13;;;;;;;1.42;0.85;;;8.90;99.90;;;;;;6277768;22;20012;-66
2022/01/10 01:27:42;;;;;;;5.05;1.60;;;8.80;99.90;;;;;;6278247;22;19996;-66
2022/01/10 01:30:11;;;;;;;3.72;1.25;;;8.80;99.90;;;;;;6277871;22;20012;-66
2022/01/10 01:32:38;;;;;;;13.73;4.13;;;8.70;99.90;;;;;;6278006;22;20520;-66
2022/01/10 01:35:07;;;;;;;7.20;2.08;;;8.60;99.90;;;;;;6250461;22;20503;-66
2022/01/10 01:37:37;;;;;;;6.07;1.10;;;8.60;99.90;;;;;;6277896;22;20057;-66
2022/01/10 01:40:06;;;;;;;2.75;1.00;;;8.70;99.90;;;;;;6250641;22;20370;-66
2022/01/10 01:42:37;;;;;;;1.35;0.90;;;8.70;99.90;;;;;;6278173;22;20004;-66
2022/01/10 01:45:11;;;;;;;2.08;0.90;;;8.70;99.90;;;;;;6277498;22;20380;-66
2022/01/10 01:47:39;;;;;;;1.58;0.88;;;8.70;99.90;;;;;;6277709;22;20006;-66
2022/01/10 01:50:14;;;;;;;3.15;1.05;;;8.70;99.90;;;;;;6277817;22;20007;-66
2022/01/10 01:52:40;;;;;;;1.50;0.60;;;8.60;99.90;;;;;;6250523;22;20148;-65
2022/01/10 01:55:08;;;;;;;2.70;0.73;;;8.60;99.90;;;;;;6251400;22;20296;-66
2022/01/10 01:57:38;;;;;;;0.22;0.22;;;8.60;99.90;;;;;;6277493;22;20014;-66
2022/01/10 02:00:06;;;;;;;0.73;0.60;;;8.50;99.90;;;;;;6250329;22;20039;-66
2022/01/10 02:02:32;;;;;;;1.85;0.90;;;8.50;99.90;;;;;;6250222;22;20015;-66
2022/01/10 02:04:59;;;;;;;2.92;1.13;;;8.60;99.90;;;;;;6277484;22;20434;-66
2022/01/10 02:07:25;;;;;;;1.35;1.17;;;8.60;99.90;;;;;;6277269;22;20008;-66
2022/01/10 02:09:52;;;;;;;1.60;0.98;;;8.60;99.90;;;;;;6250373;22;20033;-66
2022/01/10 02:12:19;;;;;;;0.90;0.40;;;8.50;99.90;;;;;;6277672;22;20008;-66
2022/01/10 02:14:47;;;;;;;2.78;1.17;;;8.60;99.90;;;;;;6277244;22;20018;-66
2022/01/10 02:17:19;;;;;;;2.90;0.85;;;8.50;99.90;;;;;;6277346;22;20003;-66
2022/01/10 02:20:06;;;;;;;2.80;0.43;;;8.50;99.90;;;;;;6277268;22;20083;-66
2022/01/10 02:22:38;;;;;;;1.38;0.60;;;8.50;99.90;;;;;;6277260;22;20053;-66
2022/01/10 02:25:24;;;;;;;2.50;0.60;;;8.50;99.90;;;;;;6277745;22;20158;-66
2022/01/10 02:27:53;;;;;;;2.95;0.80;;;8.40;99.90;;;;;;6278177;22;20329;-66
2022/01/10 02:30:20;;;;;;;3.40;0.85;;;8.40;99.90;;;;;;6250083;22;20050;-66
2022/01/10 02:32:48;;;;;;;3.33;1.08;;;8.40;99.90;;;;;;6277054;22;20003;-66
2022/01/10 02:35:54;;;;;;;3.58;1.10;;;8.40;99.90;;;;;;6249986;22;20039;-66
2022/01/10 02:38:22;;;;;;;3.33;1.30;;;8.30;99.90;;;;;;6277027;22;20010;-66
2022/01/10 02:40:51;;;;;;;1.80;0.88;;;8.30;99.90;;;;;;6250333;22;20029;-66
2022/01/10 02:43:19;;;;;;;3.45;1.60;;;8.30;99.90;;;;;;6277066;22;20003;-66
2022/01/10 02:45:47;;;;;;;1.80;1.13;;;8.30;99.90;;;;;;6277186;22;20000;-66
2022/01/10 02:48:14;;;;;;;1.75;0.80;;;8.30;99.90;;;;;;6276987;22;20012;-66
2022/01/10 02:50:40;;;;;;;4.70;0.82;;;8.20;99.90;;;;;;6250093;22;20038;-66
2022/01/10 02:53:08;;;;;;;1.15;0.85;;;8.20;99.90;;;;;;6249888;22;20007;-66
2022/01/10 02:55:37;;;;;;;2.75;0.90;;;8.30;99.90;;;;;;6276956;22;20016;-66
2022/01/10 02:58:03;;;;;;;2.70;1.08;;;8.30;99.90;;;;;;6276868;22;20470;-66
2022/01/10 03:00:31;;;;;;;3.47;1.55;;;8.20;99.90;;;;;;6249709;22;20012;-66
2022/01/10 03:02:59;;;;;;;3.35;1.42;;;8.20;99.90;;;;;;6276987;22;20004;-66
2022/01/10 03:05:28;;;;;;;1.75;1.00;;;8.20;99.90;;;;;;6276773;22;20016;-66
2022/01/10 03:07:56;;;;;;;2.53;1.40;;;8.20;99.90;;;;;;6249861;22;20008;-66
2022/01/10 03:10:23;;;;;;;3.53;1.65;;;8.20;99.90;;;;;;6277931;22;20008;-66
2022/01/10 03:12:50;;;;;;;4.45;1.23;;;8.20;99.90;;;;;;6249720;22;20039;-66
2022/01/10 03:15:18;;;;;;;12.13;1.25;;;8.20;99.90;;;;;;6276765;22;20374;-66
2022/01/10 03:17:45;;;;;;;7.63;1.60;;;8.20;99.90;;;;;;6276790;22;20053;-66
2022/01/10 03:20:12;;;;;;;2.83;1.13;;;8.20;99.90;;;;;;6276967;22;20014;-66
2022/01/10 03:22:39;;;;;;;4.65;1.55;;;8.20;99.90;;;;;;6276984;22;20031;-66
2022/01/10 03:25:07;;;;;;;7.75;1.48;;;8.20;99.90;;;;;;6276685;22;20338;-66
2022/01/10 03:27:38;;;;;;;4.63;1.02;;;8.20;99.90;;;;;;6276779;22;20004;-66
2022/01/10 03:30:05;;;;;;;3.13;1.52;;;8.10;99.90;;;;;;6276740;22;20011;-66
2022/01/10 03:32:32;;;;;;;2.20;1.40;;;8.00;99.90;;;;;;6276909;22;20084;-65
2022/01/10 03:35:08;;;;;;;1.77;1.50;;;8.10;99.90;;;;;;6249461;22;20062;-66
2022/01/10 03:37:36;;;;;;;3.95;2.03;;;8.10;99.90;;;;;;6276780;22;20437;-66
2022/01/10 03:40:04;;;;;;;2.30;1.25;;;8.10;99.90;;;;;;6276692;22;20090;-66
2022/01/10 03:42:31;;;;;;;4.00;1.42;;;8.10;99.90;;;;;;6276682;22;20034;-66
2022/01/10 03:44:58;;;;;;;1.98;1.15;;;8.10;99.90;;;;;;6278724;22;20004;-66
2022/01/10 03:47:25;;;;;;;3.50;1.23;;;8.10;99.90;;;;;;6278673;22;20004;-65
2022/01/10 03:49:52;;;;;;;2.60;1.50;;;8.10;99.90;;;;;;6251654;22;20003;-66
2022/01/10 03:52:20;;;;;;;2.05;1.35;;;8.00;99.90;;;;;;6251635;22;20315;-66
2022/01/10 03:54:47;;;;;;;3.10;1.25;;;8.10;99.90;;;;;;6251552;22;20058;-65
2022/01/10 03:57:13;;;;;;;2.92;1.52;;;8.00;99.90;;;;;;6278606;22;20100;-66
2022/01/10 03:59:40;;;;;;;6.30;2.05;;;8.00;99.90;;;;;;6278733;22;19999;-66
2022/01/10 04:02:06;;;;;;;2.75;1.27;;;8.00;99.90;;;;;;6251584;22;20008;-66
2022/01/10 04:04:37;;;;;;;1.95;1.10;;;8.00;99.90;;;;;;6278652;22;20388;-65
2022/01/10 04:07:06;;;;;;;7.47;1.58;;;8.00;99.90;;;;;;6278224;22;20020;-66
2022/01/10 04:09:33;;;;;;;2.88;1.35;;;8.00;99.90;;;;;;6278640;22;20012;-65
2022/01/10 04:11:59;;;;;;;2.17;1.13;;;8.00;99.90;;;;;;6278625;22;20063;-66
2022/01/10 04:14:26;;;;;;;2.30;1.33;;;8.00;99.90;;;;;;6278415;22;20039;-65
2022/01/10 04:16:53;;;;;;;5.22;1.17;;;8.00;99.90;;;;;;6278417;22;20027;-66
2022/01/10 04:19:19;;;;;;;4.20;1.20;;;8.00;99.90;;;;;;6278467;22;20004;-66
2022/01/10 04:21:46;;;;;;;3.65;1.08;;;8.00;99.90;;;;;;6251398;22;20015;-66
2022/01/10 04:24:13;;;;;;;2.35;1.23;;;8.00;99.90;;;;;;6251341;22;20456;-66
2022/01/10 04:26:40;;;;;;;3.58;1.60;;;8.00;99.90;;;;;;6278414;22;20036;-66
2022/01/10 04:29:09;;;;;;;2.75;1.30;;;8.10;99.90;;;;;;6278509;22;20000;-66
2022/01/10 04:31:35;;;;;;;3.75;1.67;;;8.00;99.90;;;;;;6251445;22;20008;-66
2022/01/10 04:34:02;;;;;;;2.38;1.60;;;8.00;99.90;;;;;;6251208;22;20517;-66
2022/01/10 04:36:35;;;;;;;3.83;1.15;;;8.00;99.90;;;;;;6251185;22;20008;-66
2022/01/10 04:39:02;;;;;;;2.97;1.85;;;8.00;99.90;;;;;;6278408;22;20004;-66
2022/01/10 04:41:32;;;;;;;4.15;1.98;;;8.00;99.90;;;;;;6278581;22;20007;-66
2022/01/10 04:44:00;;;;;;;6.53;2.80;;;8.00;99.90;;;;;;6251579;22;20008;-66
2022/01/10 04:46:28;;;;;;;6.63;3.65;;;8.00;99.90;;;;;;6278123;22;20060;-66
2022/01/10 04:48:54;;;;;;;8.70;3.03;;;8.00;99.90;;;;;;6278117;22;20008;-66
2022/01/10 04:51:21;;;;;;;11.52;3.90;;;8.00;99.90;;;;;;6279043;22;20034;-66
2022/01/10 04:53:51;;;;;;;8.05;3.10;;;8.00;99.90;;;;;;6250772;22;20004;-66
2022/01/10 04:56:19;;;;;;;7.50;3.78;;;8.00;99.90;;;;;;6250983;22;20008;-66
2022/01/10 04:58:50;;;;;;;8.73;3.55;;;8.00;99.90;;;;;;6278096;22;20091;-66
2022/01/10 05:01:18;;;;;;;6.60;3.40;;;8.00;99.90;;;;;;6250892;22;20019;-66
2022/01/10 05:03:47;;;;;;;9.20;4.03;;;8.00;99.90;;;;;;6278145;22;19996;-66
2022/01/10 05:06:15;;;;;;;9.98;3.13;;;8.00;99.90;;;;;;6277873;22;20453;-66
2022/01/10 05:08:42;;;;;;;8.13;3.70;;;8.00;99.90;;;;;;6250968;22;20014;-66
2022/01/10 05:11:13;;;;;;;6.35;3.78;;;7.90;99.90;;;;;;6277806;22;20345;-67
2022/01/10 05:13:41;;;;;;;7.57;2.92;;;7.90;99.90;;;;;;6250737;22;20354;-66
2022/01/10 05:16:08;;;;;;;10.68;3.25;;;7.80;99.90;;;;;;6250784;22;20453;-66
2022/01/10 05:18:36;;;;;;;8.55;3.20;;;7.80;99.90;;;;;;6277944;22;20000;-66
2022/01/10 05:21:03;;;;;;;5.53;2.55;;;7.90;99.90;;;;;;6278286;22;20307;-66
2022/01/10 05:23:30;;;;;;;7.88;3.28;;;7.90;99.90;;;;;;6250742;22;20004;-66
2022/01/10 05:25:57;;;;;;;5.93;3.13;;;7.90;99.90;;;;;;6250764;22;20341;-66
2022/01/10 05:28:24;;;;;;;8.65;4.05;;;8.00;99.90;;;;;;6277923;22;20023;-66
2022/01/10 05:30:54;;;;;;;5.22;2.22;;;7.90;99.90;;;;;;6250699;22;20004;-66
2022/01/10 05:33:25;;;;;;;8.18;3.72;;;7.90;99.90;;;;;;6277782;22;20000;-67
2022/01/10 05:35:51;;;;;;;4.90;2.80;;;7.80;99.90;;;;;;6250735;22;20026;-67
2022/01/10 05:38:18;;;;;;;6.90;3.08;;;7.80;99.90;;;;;;6277798;22;20003;-66
2022/01/10 05:40:45;;;;;;;5.38;2.58;;;7.80;99.90;;;;;;6250671;22;20014;-67
2022/01/10 05:43:12;;;;;;;4.55;2.45;;;7.80;99.90;;;;;;6250390;22;20083;-66
2022/01/10 05:45:46;;;;;;;6.65;2.70;;;7.80;99.90;;;;;;6277728;22;20006;-67
2022/01/10 05:48:21;;;;;;;4.47;2.42;;;7.80;99.90;;;;;;6278019;22;20004;-66
2022/01/10 05:50:50;;;;;;;5.25;3.17;;;7.80;99.90;;;;;;6250450;22;20365;-66
2022/01/10 05:53:19;;;;;;;7.47;2.75;;;7.80;99.90;;;;;;6250284;22;20109;-66
2022/01/10 05:55:47;;;;;;;4.80;2.40;;;7.80;99.90;;;;;;6277393;22;20433;-66
2022/01/10 05:58:17;;;;;;;6.55;2.72;;;7.80;99.90;;;;;;6277475;22;20070;-66
2022/01/10 06:00:45;;;;;;;6.90;3.15;;;7.70;99.90;;;;;;6277428;22;20012;-66
2022/01/10 06:03:12;;;;;;;4.80;2.65;;;7.80;99.90;;;;;;6277519;22;20094;-66
2022/01/10 06:05:44;;;;;;;8.15;3.17;;;7.70;99.90;;;;;;6276874;22;20337;-66
2022/01/10 06:08:10;;;;;;;9.07;3.78;;;7.60;99.90;;;;;;6277667;22;20008;-65
2022/01/10 06:10:41;;;;;;;7.93;3.45;;;7.60;99.90;;;;;;6251326;22;20015;-65
2022/01/10 06:13:22;;;;;;;7.95;3.60;;;7.60;99.90;;;;;;6250278;22;20012;-65
2022/01/10 06:15:51;;;;;;;8.57;3.50;;;7.70;99.90;;;;;;6277247;22;20012;-65
2022/01/10 06:18:19;;;;;;;14.52;4.10;;;7.60;99.90;;;;;;6250543;22;20049;-65
2022/01/10 06:20:46;;;;;;;8.15;4.20;;;7.70;99.90;;;;;;6277669;22;20004;-65
2022/01/10 06:23:13;;;;;;;7.78;3.80;;;7.70;99.90;;;;;;6250109;22;20014;-65
2022/01/10 06:25:41;;;;;;;7.82;3.83;;;7.70;99.90;;;;;;6250602;22;20029;-65
2022/01/10 06:28:08;;;;;;;7.38;3.75;;;7.80;99.90;;;;;;6277228;22;20011;-65
2022/01/10 06:30:36;;;;;;;9.50;4.03;;;7.80;99.90;;;;;;6277222;22;20003;-65
2022/01/10 06:33:04;;;;;;;10.77;4.97;;;7.80;99.90;;;;;;6277346;22;20003;-65
2022/01/10 06:35:31;;;;;;;9.82;4.22;;;7.80;99.90;;;;;;6277098;22;20115;-65
2022/01/10 06:37:58;;;;;;;10.18;4.25;;;7.80;99.90;;;;;;6277018;22;20372;-65
2022/01/10 06:40:24;;;;;;;10.57;4.30;;;7.90;99.90;;;;;;6224814;22;20326;-65
2022/01/10 06:42:51;;;;;;;6.60;3.30;;;7.90;99.90;;;;;;6250059;22;20091;-65
2022/01/10 06:45:19;;;;;;;6.25;3.33;;;8.00;99.90;;;;;;6277156;22;20007;-65
2022/01/10 06:47:47;;;;;;;7.57;3.17;;;7.90;99.90;;;;;;6277331;22;20000;-65
2022/01/10 06:50:16;;;;;;;11.85;3.63;;;7.90;99.90;;;;;;6277656;22;20089;-65
2022/01/10 06:52:45;;;;;;;6.18;3.83;;;8.00;99.90;;;;;;6277030;22;20489;-65
2022/01/10 06:55:12;;;;;;;9.30;3.72;;;7.90;99.90;;;;;;6276890;22;20079;-65
2022/01/10 06:57:41;;;;;;;9.93;4.43;;;8.00;99.90;;;;;;6277632;22;20070;-65
2022/01/10 07:00:10;;;;;;;9.15;3.92;;;8.00;99.90;;;;;;6276731;22;20397;-65
2022/01/10 07:02:45;;;;;;;10.02;5.05;;;8.00;99.90;;;;;;6276812;22;20057;-66
2022/01/10 07:05:12;;;;;;;8.80;4.28;;;8.00;99.90;;;;;;6244459;23;20070;-65
2022/01/10 07:07:39;;;;;;;10.52;4.13;;;8.00;99.90;;;;;;6246348;22;20008;-65
2022/01/10 07:10:18;;;;;;;8.43;3.30;;;8.00;99.90;;;;;;6246114;23;20057;-65
2022/01/10 07:12:45;;;;;;;8.25;3.60;;;8.00;99.90;;;;;;6246698;22;20008;-65
2022/01/10 07:15:11;;;;;;;3.85;2.30;;;8.00;99.90;;;;;;6244688;23;20059;-65
2022/01/10 07:17:38;;;;;;;10.75;2.90;;;7.90;99.90;;;;;;6247836;22;20514;-65
2022/01/10 07:20:08;;;;;;;6.57;2.97;;;7.90;99.90;;;;;;6249666;22;19996;-65
2022/01/10 07:22:38;;;;;;;6.32;3.10;;;7.90;99.90;;;;;;6249632;22;20083;-65
2022/01/10 07:25:08;;;;;;;9.88;4.38;;;8.00;99.90;;;;;;6249658;22;20004;-65
2022/01/10 07:27:38;;;;;;;10.65;5.25;;;8.10;99.90;;;;;;6249931;22;20022;-65
2022/01/10 07:30:06;;;;;;;14.65;5.63;;;8.00;99.90;;;;;;6249451;22;20422;-65
2022/01/10 07:32:32;;;;;;;14.13;5.10;;;8.10;99.90;;;;;;6249970;22;20004;-65
2022/01/10 07:34:59;;;;;;;11.25;5.45;;;8.20;99.90;;;;;;6249356;23;20027;-65
2022/01/10 07:37:26;;;;;;;11.15;4.85;;;8.20;99.90;;;;;;6249912;22;20007;-65
2022/01/10 07:39:52;;;;;;;10.57;4.40;;;8.20;99.90;;;;;;6249473;23;20080;-65
2022/01/10 07:42:19;;;;;;;9.18;4.28;;;8.20;99.90;;;;;;6249487;23;20001;-65
2022/01/10 07:44:54;;;;;;;7.80;4.13;;;8.10;99.90;;;;;;6249435;22;20015;-65
2022/01/10 07:47:21;;;;;;;7.78;3.33;;;8.10;99.90;;;;;;6249543;22;20062;-65
2022/01/10 07:49:48;;;;;;;7.43;3.65;;;8.10;99.90;;;;;;6249573;22;20475;-65
2022/01/10 07:52:15;;;;;;;7.32;3.05;;;8.10;99.90;;;;;;6249611;22;20004;-65
2022/01/10 07:54:43;;;;;;;6.03;3.50;;;8.00;99.90;;;;;;6250709;22;20075;-65
2022/01/10 07:57:10;;;;;;;8.35;3.78;;;8.10;99.90;;;;;;6249489;22;20299;-65
2022/01/10 07:59:37;;;;;;;11.85;3.97;;;8.20;99.90;;;;;;6249518;22;20070;-65
2022/01/10 08:02:04;;;;;;;9.43;4.30;;;8.30;99.90;;;;;;6247901;23;20034;-65
2022/01/10 08:04:30;;;;;;;6.53;3.85;;;8.30;99.90;;;;;;6249301;22;20031;-65
2022/01/10 08:06:57;;;;;;;9.00;3.97;;;8.30;99.90;;;;;;6277610;22;20011;-65
2022/01/10 08:09:24;;;;;;;7.38;4.25;;;8.30;99.90;;;;;;6280023;22;20008;-65
2022/01/10 08:11:50;;;;;;;8.90;3.83;;;8.30;99.90;;;;;;6280859;22;20341;-69
2022/01/10 08:14:17;;;;;;;8.73;3.45;;;8.30;99.90;;;;;;6279701;22;20090;-70
2022/01/10 08:16:53;;;;;;;7.65;4.13;;;8.30;99.90;;;;;;6279982;22;20011;-70
2022/01/10 08:19:20;;;;;;;7.78;3.55;;;8.30;99.90;;;;;;6279922;22;20004;-70
2022/01/10 08:21:46;;;;;;;8.38;3.75;;;8.40;99.90;;;;;;6252861;22;20007;-70
2022/01/10 08:24:13;;;;;;;7.28;2.95;;;8.40;99.90;;;;;;6280004;22;20070;-71
2022/01/10 08:26:40;;;;;;;12.50;3.75;;;8.40;99.90;;;;;;6252876;22;20015;-70
2022/01/10 08:29:09;;;;;;;7.38;3.80;;;8.50;99.90;;;;;;6278594;22;20446;-70
2022/01/10 08:31:39;;;;;;;7.93;3.40;;;8.50;99.90;;;;;;6278319;22;20007;-70
2022/01/10 08:34:09;;;;;;;5.80;2.83;;;8.50;99.90;;;;;;6278010;22;20061;-70
2022/01/10 08:36:35;;;;;;;7.63;3.10;;;8.50;99.90;;;;;;6278245;22;20046;-70
2022/01/10 08:39:05;;;;;;;4.38;2.75;;;8.60;99.90;;;;;;6278382;22;20495;-70
2022/01/10 08:41:37;;;;;;;9.38;3.13;;;8.50;99.90;;;;;;6278214;22;20074;-70
2022/01/10 08:44:05;;;;;;;11.77;2.60;;;8.40;99.90;;;;;;6278528;22;20425;-70
2022/01/10 08:46:33;;;;;;;7.00;3.20;;;8.40;99.90;;;;;;6278480;22;20325;-70
2022/01/10 08:49:00;;;;;;;3.72;2.33;;;8.50;99.90;;;;;;6278311;22;20000;-70
2022/01/10 08:51:29;;;;;;;9.27;3.00;;;8.60;99.90;;;;;;6278153;22;20008;-70
2022/01/10 08:53:56;;;;;;;5.72;3.00;;;8.60;99.90;;;;;;6278152;22;20003;-70
2022/01/10 08:56:23;;;;;;;6.40;2.33;;;8.80;99.90;;;;;;6278455;22;20038;-70
2022/01/10 08:58:50;;;;;;;6.10;2.08;;;8.80;99.90;;;;;;6278086;22;20010;-70
2022/01/10 09:01:23;;;;;;;4.07;2.63;;;8.80;99.90;;;;;;6278228;22;20008;-70
2022/01/10 09:03:50;;;;;;;5.85;2.55;;;8.90;99.90;;;;;;6278184;22;20037;-70
2022/01/10 09:06:17;;;;;;;7.47;2.28;;;8.80;99.90;;;;;;6277770;22;20011;-70
2022/01/10 09:08:47;;;;;;;6.05;3.33;;;8.80;99.90;;;;;;6277942;22;20008;-70
2022/01/10 09:11:14;;;;;;;7.35;3.65;;;8.80;99.90;;;;;;6278007;22;20000;-70
2022/01/10 09:13:41;;;;;;;6.43;3.33;;;8.90;99.90;;;;;;6278154;22;20418;-70
2022/01/10 09:16:13;;;;;;;6.22;3.63;;;8.90;99.90;;;;;;6277918;22;20403;-70
2022/01/10 09:18:40;;;;;;;9.75;3.30;;;8.80;99.90;;;;;;6277911;22;20032;-70
2022/01/10 09:21:07;;;;;;;7.03;3.40;;;8.90;99.90;;;;;;6250651;22;20008;-70
2022/01/10 09:23:37;;;;;;;9.18;3.72;;;9.00;99.90;;;;;;6278346;22;20004;-70
2022/01/10 09:26:07;;;;;;;9.77;3.85;;;9.00;99.90;;;;;;6277903;22;20021;-70
2022/01/10 09:28:34;;;;;;;5.25;2.85;;;9.00;99.90;;;;;;6278264;22;20011;-70
2022/01/10 09:31:01;;;;;;;11.82;4.25;;;9.10;99.90;;;;;;6277760;22;20086;-70
2022/01/10 09:33:28;;;;;;;5.30;2.95;;;9.00;99.90;;;;;;6277715;22;20008;-70
2022/01/10 09:35:54;;;;;;;7.05;3.40;;;9.10;99.90;;;;;;6277496;22;20015;-70
2022/01/10 09:38:27;;;;;;;5.53;2.80;;;9.20;99.90;;;;;;6278067;22;20007;-70
2022/01/10 09:40:55;;;;;;;5.80;3.10;;;9.10;99.90;;;;;;6250169;22;20081;-70
2022/01/10 09:43:22;;;;;;;5.18;3.10;;;9.10;99.90;;;;;;6277677;22;20008;-70
2022/01/10 09:45:51;;;;;;;7.43;3.22;;;9.10;99.90;;;;;;6277644;22;20046;-70
2022/01/10 09:48:18;;;;;;;5.25;2.90;;;9.20;99.90;;;;;;6277696;22;20418;-70
2022/01/10 09:50:44;;;;;;;10.00;4.07;;;9.20;99.90;;;;;;6277379;22;20030;-70
2022/01/10 09:53:17;;;;;;;11.07;4.03;;;9.10;99.90;;;;;;6277418;22;20015;-70
2022/01/10 09:55:44;;;;;;;21.65;6.13;;;9.20;99.90;;;;;;6277370;22;20042;-70
2022/01/10 09:58:13;;;;;;;16.67;6.25;;;9.10;99.90;;;;;;6277535;22;20004;-70
2022/01/10 10:00:45;;;;;;;14.77;6.00;;;9.10;99.90;;;;;;6277553;22;20008;-70
2022/01/10 10:03:12;;;;;;;12.23;4.53;;;9.20;99.90;;;;;;6277559;22;20079;-70
2022/01/10 10:05:38;;;;;;;17.88;4.50;;;9.20;99.90;;;;;;6277199;22;20464;-70
2022/01/10 10:08:05;;;;;;;16.40;4.30;;;9.20;99.90;;;;;;6277802;22;20008;-70
2022/01/10 10:10:32;;;;;;;10.32;4.70;;;9.30;99.90;;;;;;6277388;22;20004;-70
2022/01/10 10:12:58;;;;;;;12.68;4.53;;;9.30;99.90;;;;;;6277736;22;20035;-70
2022/01/10 10:15:31;;;;;;;33.00;5.38;;;9.30;99.90;;;;;;6277527;22;20023;-70
2022/01/10 10:18:03;;;;;;;12.05;5.20;;;9.30;99.90;;;;;;6277322;22;20003;-70
2022/01/10 10:20:29;;;;;;;10.85;4.10;;;9.30;99.90;;;;;;6277663;22;20012;-70
2022/01/10 10:22:56;;;;;;;9.23;4.57;;;9.30;99.90;;;;;;6277549;22;20011;-70
2022/01/10 10:25:22;;;;;;;5.70;3.30;;;9.30;99.90;;;;;;6277320;22;20109;-70
2022/01/10 10:27:52;;;;;;;8.65;4.75;;;9.30;99.90;;;;;;6277247;22;20008;-70
2022/01/10 10:30:28;;;;;;;12.10;4.95;;;9.40;99.90;;;;;;6277655;22;20094;-70
2022/01/10 10:33:19;;;;;;;7.25;3.60;;;9.50;99.90;;;;;;6277161;22;20007;-70
2022/01/10 10:35:56;;;;;;;12.40;3.85;;;9.50;99.90;;;;;;6276939;22;20015;-70
2022/01/10 10:38:26;;;;;;;9.93;4.90;;;9.50;99.90;;;;;;6278206;22;20010;-70
2022/01/10 10:40:52;;;;;;;11.20;4.55;;;9.50;99.90;;;;;;6277136;22;20014;-70
2022/01/10 10:43:19;;;;;;;6.20;3.95;;;9.40;99.90;;;;;;6277246;22;20030;-70
2022/01/10 10:45:48;;;;;;;9.48;4.00;;;9.50;99.90;;;;;;6277024;22;20004;-70
2022/01/10 10:48:17;;;;;;;11.77;4.88;;;9.50;99.90;;;;;;6276981;22;20033;-70
2022/01/10 10:50:47;;;;;;;5.70;3.58;;;9.60;99.90;;;;;;6277002;22;20000;-70
2022/01/10 10:53:18;;;;;;;6.97;4.13;;;9.60;99.90;;;;;;6276641;22;20039;-70
2022/01/10 10:55:46;;;;;;;6.55;4.05;;;9.60;99.90;;;;;;6276858;22;20338;-70
2022/01/10 10:58:13;;;;;;;10.73;3.42;;;9.60;99.90;;;;;;6276940;22;20000;-70
2022/01/10 11:00:40;;;;;;;8.85;4.60;;;9.60;99.90;;;;;;6277425;22;20012;-70
2022/01/10 11:03:09;;;;;;;6.95;3.42;;;9.60;99.90;;;;;;6277013;22;20075;-70
2022/01/10 11:05:36;;;;;;;13.70;4.13;;;9.50;99.90;;;;;;6276755;22;20090;-70
2022/01/10 11:08:03;;;;;;;8.32;4.22;;;9.50;99.90;;;;;;6277000;22;20438;-70
2022/01/10 11:10:30;;;;;;;15.23;4.88;;;9.50;99.90;;;;;;6277273;22;20053;-70
2022/01/10 11:13:01;;;;;;;7.13;3.50;;;9.60;99.90;;;;;;6276818;22;20006;-70
2022/01/10 11:15:29;;;;;;;9.30;4.85;;;9.60;99.90;;;;;;6276925;22;20019;-70
2022/01/10 11:18:04;;;;;;;9.88;4.30;;;9.60;99.90;;;;;;6276872;22;20007;-70
2022/01/10 11:20:49;;;;;;;9.77;4.00;;;9.70;99.90;;;;;;6276831;22;20050;-70
2022/01/10 11:23:16;;;;;;;9.82;3.83;;;9.70;99.90;;;;;;6276743;22;20014;-70
2022/01/10 11:25:44;;;;;;;4.72;3.10;;;9.60;99.90;;;;;;6276752;22;20326;-70
2022/01/10 11:28:21;;;;;;;10.25;4.50;;;9.70;99.90;;;;;;6276970;22;20034;-70
2022/01/10 11:30:49;;;;;;;8.88;4.15;;;9.70;99.90;;;;;;6276992;22;20004;-70
2022/01/10 11:33:26;;;;;;;8.70;4.10;;;9.70;99.90;;;;;;6277819;22;20027;-70
2022/01/10 11:36:00;;;;;;;9.07;3.55;;;9.70;99.90;;;;;;6276755;22;20020;-70
2022/01/10 11:38:48;;;;;;;9.00;3.90;;;9.80;99.90;;;;;;6276699;22;20042;-70
2022/01/10 11:41:28;;;;;;;6.88;4.38;;;9.80;99.90;;;;;;6276715;22;20082;-70
2022/01/10 11:44:07;;;;;;;9.13;4.22;;;9.80;99.90;;;;;;6277077;22;20010;-70
2022/01/10 11:46:58;;;;;;;11.10;4.07;;;9.80;99.90;;;;;;6276894;22;20080;-70
2022/01/10 11:49:25;;;;;;;11.90;4.15;;;9.70;99.90;;;;;;6276829;22;20303;-70
2022/01/10 11:51:53;;;;;;;7.13;3.67;;;9.80;99.90;;;;;;6276740;22;20074;-70
2022/01/10 11:54:41;;;;;;;9.85;3.22;;;9.80;99.90;;;;;;6276584;22;20005;-70
2022/01/10 11:57:15;;;;;;;7.63;3.45;;;9.80;99.90;;;;;;6276609;22;20012;-70
2022/01/10 11:59:52;;;;;;;5.68;2.78;;;9.70;99.90;;;;;;6276798;22;20012;-70
2022/01/10 12:02:23;;;;;;;7.18;2.83;;;9.70;99.90;;;;;;6276743;22;20008;-70
2022/01/10 12:04:58;;;;;;;9.15;2.47;;;9.60;99.90;;;;;;6277137;22;20011;-70
2022/01/10 12:07:24;;;;;;;;;;;9.60;99.90;;;;;;6252690;22;20008;-70
2022/01/10 12:09:53;;;;;;;7.70;2.20;;;9.50;99.90;;;;;;6278636;22;19910;-70
2022/01/10 12:12:29;;;;;;;2.92;1.77;;;9.50;99.90;;;;;;6278436;22;20059;-70
2022/01/10 12:14:57;;;;;;;5.75;2.60;;;9.40;99.90;;;;;;6278680;22;20016;-70
2022/01/10 12:17:23;;;;;;;6.63;3.25;;;9.40;99.90;;;;;;6278808;22;20000;-70
2022/01/10 12:19:50;;;;;;;6.97;2.50;;;9.40;99.90;;;;;;6278536;22;20027;-69
2022/01/10 12:22:17;;;;;;;6.88;2.00;;;9.40;99.90;;;;;;6278797;22;20326;-69
2022/01/10 12:24:47;;;;;;;5.65;1.40;;;9.30;99.90;;;;;;6278358;22;20004;-69
2022/01/10 12:27:14;;;;;;;4.78;1.65;;;9.30;99.90;;;;;;6278351;22;20003;-69
2022/01/10 12:29:45;;;;;;;2.22;0.93;;;9.20;99.90;;;;;;6278351;22;20083;-69
2022/01/10 12:32:11;;;;;;;12.57;1.17;;;9.20;99.90;;;;;;6279377;22;20174;-69
2022/01/10 12:34:44;;;;;;;2.30;0.60;;;9.20;99.90;;;;;;6278045;22;20326;-69
2022/01/10 12:37:13;;;;;;;5.15;1.30;;;9.20;99.90;;;;;;6278385;22;20012;-69
2022/01/10 12:39:43;;;;;;;3.95;1.35;;;9.10;99.90;;;;;;6278118;22;20137;-69
2022/01/10 12:42:11;;;;;;;5.25;0.80;;;9.10;99.90;;;;;;6278197;22;20004;-69
2022/01/10 12:44:38;;;;;;;4.25;0.70;;;9.10;99.90;;;;;;6278330;22;20011;-69
2022/01/10 12:47:05;;;;;;;2.47;0.85;;;9.10;99.90;;;;;;6278173;22;20008;-69
2022/01/10 12:49:36;;;;;;;0.55;0.45;;;9.00;99.90;;;;;;6278149;22;20012;-68
2022/01/10 12:52:06;;;;;;;1.17;0.50;;;8.90;99.90;;;;;;6278593;22;20007;-69
2022/01/10 12:54:33;;;;;;;0.70;0.63;;;9.00;99.90;;;;;;6277999;22;20019;-69
2022/01/10 12:57:03;;;;;;;2.55;1.08;;;8.90;99.90;;;;;;6278102;22;20004;-69
2022/01/10 12:59:33;;;;;;;1.77;1.13;;;8.90;99.90;;;;;;6278207;22;20010;-69
2022/01/10 13:02:01;;;;;;;4.65;1.02;;;8.90;99.90;;;;;;6278090;22;20004;-69
2022/01/10 13:04:49;;;;;;;6.28;0.90;;;8.80;99.90;;;;;;6278469;22;20007;-69
2022/01/10 13:07:18;;;;;;;3.20;1.58;;;8.80;99.90;;;;;;6247400;22;20023;-69
2022/01/10 13:09:48;;;;;;;2.08;0.80;;;8.80;99.90;;;;;;6247820;22;20373;-69
2022/01/10 13:12:28;;;;;;;3.42;0.90;;;8.80;99.90;;;;;;6247373;22;20008;-69
2022/01/10 13:15:09;;;;;;;1.58;0.82;;;8.80;99.90;;;;;;6246981;22;20380;-69